LiveATC.Net - Listen to live air traffic control over the Internet!

ICAO: KPWK  IATA: PWK   Airport: Chicago Executive Airport
City: Chicago/Prospect Heights/Wheeling   State/Province: Illinois
Country: United States   Continent: North America
KPWK METAR Weather: KPWK 241352Z 34005KT 10SM CLR 08/05 A3037 RMK AO2 SLP285 T00830050
KPWK Flight Activity (FlightAware)
KPWK Webcam: (Airport Webcams)
KPWK Airport Info   (AirNav) (iFlightPlanner)
KPWK VFR Sectional Chart   (iFlightPlanner) 
KPWK IFR Low Chart   (iFlightPlanner) 
KPWK Del/Gnd/Tower
Feed Status: UP   Listeners: 0
Listen right in your browser - requires Flash (in browser, requires Flash)
Click here to listen with your own player (launches your MP3 player)
KPWK Del/Gnd/Tower Audio Archives
Executive Clearance124.700
Executive Ground121.700
Executive Tower/CTAF119.900

Sponsored by: Leading Edge Flying Club


Unauthorized use prohibited. See Terms of Service

Find LiveATC Audio Streams

Airport/ARTCC Code

(e.g., 124.400, 128.75)
Site-wide search

Browse LiveATC Feeds
LiveATC Coverage Map
Top 50 LiveATC Feeds
Bad Weather Areas

Offer a LiveATC Feed
Press Inquiries

LiveATC on iPhone
LiveATC on Android

Windows Phone
Windows 8/10

LiveATC Mobile
(Mobile browser)

ATC Audio Archives
Interesting Recordings

LiveATC Forums

Home Page
Make a Donation
LiveATC Store

Terms of Use
Privacy Policy

Canadian Air Freqs


FAA Airport Status
Nat'l Airspace Status
Arrival Demand Charts

Server Software By: